Aérodrome :
LOGIN :

S'inscrire | Disclaimer

   EN    FR    IT 

 










Légende :    VFR   VFR Marginal   IFR   IFR Intensif   IFR Très Intensif
Visi : 
Plafond : 
>= 8 km
>= 3000ft
5 à 8 km
1000 à 3000 ft
1500m à 5 km
500 à 1000 ft
800 à 1500m
200 à 500 ft
< 800m
< 200 ft
Symboles :   Orages  Brouillard  Fortes neiges  Fortes précipitations  Vent > 20 kt
SIGMETs :   Divers  Orages  Givrage  Turbulence  Onde Orograph.  Cendres Volcan.






- Altitude de l'aérodrome : 90 ft
- Code IATA : NTE


LFRS - Nantes

DERNIER METAR :
  • 062100Z AUTO 24007KT 9999 BKN036 OVC042 11/10 Q1017 TEMPO 2000 BR BKN002

METARs EXPIRÉS :
  • 062030Z AUTO 24007KT 9999 FEW009 SCT026 OVC034 11/11 Q1017 TEMPO 2000 BR BKN002
  • 062000Z AUTO 27010KT 5000 -RA BR OVC003 11/11 Q1017 TEMPO 2000 BR
  • 061930Z AUTO 24011KT 210V270 4600 +DZ BR OVC003 11/11 Q1017 TEMPO 2000 BR
  • 061900Z AUTO 23011KT 200V260 5000 -DZ BR OVC004 11/11 Q1016 NOSIG
  • 061830Z AUTO 23010KT 200V260 5000 -DZ BR OVC004 11/10 Q1016 TEMPO BKN008

TAF AMD TAF LFRS
Valide du 06 à 20h jusqu'au 08 à 00h UTC


062000Z 0620/0724 24010KT 9999 SCT012 BKN030
TEMPO 0620/0622 3000 -RA BKN003
TEMPO 0622/0711 2000 BR BKN002
BECMG 0702/0705 VRB04KT
PROB30
TEMPO 0703/0708 0800 FG VV///
BECMG 0717/0720 20010KT
ATIS : +33 2 40 05 12 74



MET'MAP, la Météo Aéronautique d'un coup d'oeil ! - Copyright ORBIFLY Décembre 2007 - Disclaimer

ORBIFLY MET'MAP TEAM :

Programmation & Développement : Alexandra Zaïnal
Sur une idée originale de : Baudouin d'Aumeries
Assistance à la programmation : Marc-Olivier Méhu
Soutien technique & logistique : Manuel Goepfert

Contact : metmap@orbifly.com




SOURCES & CREDITS :

   NOAA